Terminal Aerodrome Forecast
Issued by NWS

Home | Current Version | Previous Version | Graphics & Text | Print | Product List | Glossary On
Versions: 1 2 3 4 5 6 7 8 9 10 11 12 13 14 15 16 17
705
FTUS43 KMPX 042335
TAFRWF
TAF
KRWF 042335Z 0500/0524 25010KT P6SM SKC
     FM050600 20006KT P6SM SCT200
     FM051000 15008KT P6SM OVC100
     FM051500 17012G20KT P6SM OVC090
     FM052300 23013G19KT P6SM OVC050=

USA.gov is the U.S. government's official web portal to all federal, state and local government web resources and services.